createdAt,value
2024-01-11T00:01:28.900Z,18.73
2024-01-11T00:04:16.209Z,19.42
2024-01-11T00:07:03.164Z,18.45
2024-01-11T00:09:50.020Z,20.27
2024-01-11T00:12:36.849Z,19.13
2024-01-11T00:15:23.750Z,18.27
2024-01-11T00:18:10.806Z,18.30
2024-01-11T00:20:57.788Z,18.25
2024-01-11T00:23:44.728Z,17.83
2024-01-11T00:26:31.633Z,17.05
2024-01-11T00:29:18.629Z,18.02
2024-01-11T00:32:05.711Z,17.17
2024-01-11T00:34:53.560Z,16.92
2024-01-11T00:37:40.789Z,16.83
2024-01-11T00:40:27.643Z,16.38
2024-01-11T00:43:14.514Z,16.98
2024-01-11T00:46:01.336Z,17.30
2024-01-11T00:48:48.224Z,16.00
2024-01-11T00:51:35.141Z,16.30
2024-01-11T00:54:22.025Z,17.38
2024-01-11T00:57:08.930Z,17.92
2024-01-11T00:59:56.436Z,16.02
2024-01-11T01:02:43.452Z,16.52
2024-01-11T01:05:30.598Z,16.45
2024-01-11T01:08:17.576Z,15.45
2024-01-11T01:11:04.565Z,15.98
2024-01-11T01:13:51.437Z,16.42
2024-01-11T01:16:38.306Z,15.88
2024-01-11T01:19:25.264Z,16.58
2024-01-11T01:22:12.141Z,17.02
2024-01-11T01:24:59.016Z,15.48
2024-01-11T01:27:45.933Z,16.25
2024-01-11T01:30:32.850Z,15.32
2024-01-11T01:33:19.887Z,14.48
2024-01-11T01:36:10.798Z,15.20
2024-01-11T01:38:57.635Z,16.52
2024-01-11T01:41:44.486Z,15.80
2024-01-11T01:44:31.374Z,15.85
2024-01-11T01:47:19.050Z,16.17
2024-01-11T01:50:07.354Z,15.95
2024-01-11T01:52:55.322Z,15.75
2024-01-11T01:55:42.219Z,15.38
2024-01-11T01:58:30.390Z,14.98
2024-01-11T02:01:17.383Z,16.20
2024-01-11T02:04:04.473Z,15.50
2024-01-11T02:06:53.182Z,15.43
2024-01-11T02:09:41.214Z,16.05
2024-01-11T02:12:29.928Z,16.40
2024-01-11T02:15:16.899Z,16.52
2024-01-11T02:18:04.011Z,16.20
2024-01-11T02:20:51.101Z,16.88
2024-01-11T02:23:46.815Z,15.48
2024-01-11T02:26:34.414Z,16.20
2024-01-11T02:29:21.343Z,16.00
2024-01-11T02:32:09.501Z,14.60
2024-01-11T02:34:56.944Z,15.60
2024-01-11T02:37:44.237Z,15.00
2024-01-11T02:40:31.059Z,15.43
2024-01-11T02:43:17.871Z,15.80
2024-01-11T02:46:04.860Z,15.88
2024-01-11T02:48:52.785Z,15.20
2024-01-11T02:51:39.855Z,14.77
2024-01-11T02:54:26.721Z,16.20
2024-01-11T02:57:13.633Z,15.23
2024-01-11T03:00:00.541Z,16.45
2024-01-11T03:02:47.424Z,14.77
2024-01-11T03:05:34.438Z,16.13
2024-01-11T03:08:21.523Z,15.38
2024-01-11T03:11:08.476Z,15.60
2024-01-11T03:13:56.632Z,15.93
2024-01-11T03:16:43.816Z,15.73
2024-01-11T03:19:30.743Z,15.25
2024-01-11T03:22:17.609Z,14.95
2024-01-11T03:25:04.800Z,15.85
2024-01-11T03:27:51.665Z,16.30
2024-01-11T03:30:38.537Z,16.08
2024-01-11T03:33:25.569Z,16.35
2024-01-11T03:36:12.969Z,14.85
2024-01-11T03:39:00.012Z,16.20
2024-01-11T03:41:46.946Z,14.43
2024-01-11T03:44:33.921Z,14.85
2024-01-11T03:47:20.887Z,14.98
2024-01-11T03:50:08.126Z,16.40
2024-01-11T03:52:55.082Z,15.63
2024-01-11T03:55:42.044Z,15.25
2024-01-11T03:58:28.898Z,16.50
2024-01-11T04:01:15.850Z,16.40
2024-01-11T04:04:02.743Z,15.23
2024-01-11T04:06:49.767Z,15.50
2024-01-11T04:09:39.361Z,16.52
2024-01-11T04:12:26.339Z,16.05
2024-01-11T04:15:14.635Z,16.13
2024-01-11T04:18:01.638Z,17.75
2024-01-11T04:20:48.606Z,18.30
2024-01-11T04:23:36.091Z,15.95
2024-01-11T04:26:23.110Z,15.90
2024-01-11T04:29:10.098Z,15.18
2024-01-11T04:31:57.000Z,15.05
2024-01-11T04:34:43.937Z,16.60
2024-01-11T04:37:30.802Z,16.20
2024-01-11T04:40:17.627Z,15.52
2024-01-11T04:43:04.668Z,17.45
2024-01-11T04:45:52.410Z,16.38
2024-01-11T04:48:39.343Z,15.93
2024-01-11T04:51:26.303Z,16.17
2024-01-11T04:54:13.155Z,15.65
2024-01-11T04:57:00.031Z,15.15
2024-01-11T04:59:46.900Z,16.27
2024-01-11T05:02:33.789Z,17.23
2024-01-11T05:05:20.725Z,16.80
2024-01-11T05:08:07.957Z,16.40
2024-01-11T05:10:54.998Z,17.77
2024-01-11T05:13:41.849Z,17.98
2024-01-11T05:16:29.233Z,18.38
2024-01-11T05:19:16.290Z,17.60
2024-01-11T05:22:03.179Z,17.58
2024-01-11T05:24:52.139Z,16.88
2024-01-11T05:27:39.095Z,17.42
2024-01-11T05:30:30.194Z,17.95
2024-01-11T05:33:17.410Z,17.38
2024-01-11T05:36:04.740Z,17.27
2024-01-11T05:38:51.596Z,17.45
2024-01-11T05:41:44.267Z,16.95
2024-01-11T05:44:31.185Z,16.88
2024-01-11T05:47:18.137Z,16.65
2024-01-11T05:50:06.424Z,16.60
2024-01-11T05:52:55.165Z,18.20
2024-01-11T05:55:42.033Z,17.00
2024-01-11T05:58:28.902Z,16.65
2024-01-11T06:04:03.026Z,17.02
2024-01-11T06:06:49.853Z,17.08
2024-01-11T06:09:36.665Z,17.02
2024-01-11T06:12:23.473Z,17.60
2024-01-11T06:15:10.775Z,17.90
2024-01-11T06:17:57.835Z,17.27
2024-01-11T06:20:45.109Z,17.67
2024-01-11T06:23:32.089Z,17.80
2024-01-11T06:26:18.992Z,17.88
2024-01-11T06:29:05.927Z,18.63
2024-01-11T06:31:52.845Z,17.27
2024-01-11T06:34:42.630Z,18.50
2024-01-11T06:37:29.591Z,18.33
2024-01-11T06:40:16.427Z,19.45
2024-01-11T06:43:03.414Z,19.00
2024-01-11T06:45:50.249Z,18.10
2024-01-11T06:48:37.269Z,18.60
2024-01-11T06:51:24.613Z,19.35
2024-01-11T06:54:11.510Z,18.65
2024-01-11T06:56:58.358Z,18.60
2024-01-11T06:59:47.478Z,19.02
2024-01-11T07:02:34.466Z,19.38
2024-01-11T07:05:21.441Z,18.92
2024-01-11T07:08:08.475Z,19.02
2024-01-11T07:10:55.315Z,18.33
2024-01-11T07:13:42.172Z,20.17
2024-01-11T07:16:29.042Z,19.83
2024-01-11T07:19:16.136Z,18.33
2024-01-11T07:22:03.060Z,19.13
2024-01-11T07:24:49.921Z,19.42
2024-01-11T07:27:37.245Z,18.90
2024-01-11T07:30:24.153Z,19.35
2024-01-11T07:33:11.946Z,18.85
2024-01-11T07:36:00.019Z,17.92
2024-01-11T07:38:47.154Z,18.30
2024-01-11T07:41:34.178Z,18.15
2024-01-11T07:44:22.014Z,18.80
2024-01-11T07:47:09.081Z,19.55
2024-01-11T07:49:56.172Z,20.05
2024-01-11T07:52:43.057Z,19.70
2024-01-11T07:55:29.938Z,20.15
2024-01-11T07:58:16.784Z,21.23
2024-01-11T08:01:03.916Z,22.02
2024-01-11T08:03:53.414Z,21.65
2024-01-11T08:06:40.613Z,20.17
2024-01-11T08:09:27.552Z,22.25
2024-01-11T08:12:15.633Z,22.45
2024-01-11T08:15:02.595Z,22.85
2024-01-11T08:17:49.905Z,22.40
2024-01-11T08:20:36.868Z,21.33
2024-01-11T08:23:24.919Z,22.38
2024-01-11T08:26:17.398Z,20.90
2024-01-11T08:29:06.061Z,21.17
2024-01-11T08:31:53.111Z,20.53
2024-01-11T08:34:40.397Z,19.48
2024-01-11T08:37:27.349Z,20.58
2024-01-11T08:40:14.345Z,19.58
2024-01-11T08:43:01.237Z,20.67
2024-01-11T08:45:48.111Z,19.05
2024-01-11T08:48:35.119Z,21.15
2024-01-11T08:51:22.044Z,21.90
2024-01-11T08:54:10.719Z,23.60
2024-01-11T08:56:57.676Z,24.95
2024-01-11T08:59:45.457Z,24.13
2024-01-11T09:02:32.473Z,25.25
2024-01-11T09:05:19.466Z,23.25
2024-01-11T09:08:08.224Z,21.83
2024-01-11T09:10:55.265Z,18.73
2024-01-11T09:13:42.758Z,17.75
2024-01-11T09:16:29.989Z,18.85
2024-01-11T09:19:17.254Z,18.10
2024-01-11T09:22:04.378Z,16.95
2024-01-11T09:24:51.558Z,17.17
2024-01-11T09:27:38.409Z,16.50
2024-01-11T09:30:25.301Z,16.70
2024-01-11T09:33:12.567Z,16.63
2024-01-11T09:35:59.547Z,16.70
2024-01-11T09:38:46.487Z,17.15
2024-01-11T09:41:33.983Z,16.48
2024-01-11T09:44:21.210Z,17.00
2024-01-11T09:47:11.513Z,16.90
2024-01-11T09:50:00.293Z,16.50
2024-01-11T09:52:49.489Z,16.33
2024-01-11T09:55:37.758Z,15.77
2024-01-11T09:58:25.376Z,15.32
2024-01-11T10:01:13.511Z,15.40
2024-01-11T10:04:02.293Z,15.98
2024-01-11T10:06:50.061Z,16.42
2024-01-11T10:09:37.757Z,15.38
2024-01-11T10:12:26.469Z,15.77
2024-01-11T10:15:14.738Z,14.82
2024-01-11T10:18:02.135Z,15.82
2024-01-11T10:20:49.949Z,16.20
2024-01-11T10:23:37.690Z,15.68
2024-01-11T10:26:25.478Z,16.00
2024-01-11T10:29:14.310Z,16.58
2024-01-11T10:32:01.467Z,15.00
2024-01-11T10:34:50.124Z,16.35
2024-01-11T10:37:39.863Z,15.10
2024-01-11T10:40:27.193Z,15.40
2024-01-11T10:43:16.727Z,14.82
2024-01-11T10:46:05.526Z,15.32
2024-01-11T10:48:57.416Z,14.80
2024-01-11T10:51:48.003Z,15.50
2024-01-11T10:54:35.822Z,14.45
2024-01-11T10:57:23.466Z,14.90
2024-01-11T11:00:12.998Z,14.35
2024-01-11T11:03:02.112Z,15.25
2024-01-11T11:05:51.653Z,14.82
2024-01-11T11:08:39.441Z,15.05
2024-01-11T11:11:26.687Z,13.05
2024-01-11T11:14:17.148Z,14.80
2024-01-11T11:17:06.753Z,14.38
2024-01-11T11:19:54.809Z,14.43
2024-01-11T11:22:42.162Z,14.77
2024-01-11T11:25:31.078Z,13.98
2024-01-11T11:28:19.468Z,14.35
2024-01-11T11:31:06.366Z,13.88
2024-01-11T11:33:53.805Z,14.23
2024-01-11T11:36:42.933Z,13.77
2024-01-11T11:39:29.827Z,14.23
2024-01-11T11:42:16.691Z,14.32
2024-01-11T11:45:04.557Z,13.10
2024-01-11T11:47:51.549Z,13.38
2024-01-11T11:50:38.572Z,14.18
2024-01-11T11:53:25.587Z,12.73
2024-01-11T11:56:13.687Z,12.48
2024-01-11T11:59:01.029Z,11.40
2024-01-11T12:01:48.035Z,10.90
2024-01-11T12:04:34.939Z,10.85
2024-01-11T12:07:23.906Z,11.10
2024-01-11T12:10:11.229Z,11.15
2024-01-11T12:12:58.306Z,10.70
2024-01-11T12:15:46.568Z,11.15
2024-01-11T12:18:33.635Z,11.48
2024-01-11T12:21:21.259Z,10.30
2024-01-11T12:24:08.378Z,11.27
2024-01-11T12:26:57.057Z,10.27
2024-01-11T12:29:52.506Z,10.63
2024-01-11T12:32:44.380Z,10.15
2024-01-11T12:35:32.226Z,10.00
2024-01-11T12:38:19.481Z,9.63
2024-01-11T12:41:07.295Z,9.32
2024-01-11T12:43:54.497Z,9.40
2024-01-11T12:46:42.176Z,10.50
2024-01-11T12:49:29.208Z,10.07
2024-01-11T12:52:20.726Z,9.00
2024-01-11T12:55:10.082Z,9.55
2024-01-11T13:00:53.685Z,9.48
2024-01-11T13:03:45.426Z,10.07
2024-01-11T13:06:33.096Z,11.52
2024-01-11T13:09:20.102Z,10.10
2024-01-11T13:12:07.285Z,9.85
2024-01-11T13:14:54.299Z,10.98
2024-01-11T13:17:41.279Z,10.57
2024-01-11T13:20:30.025Z,10.80
2024-01-11T13:23:21.616Z,11.40
2024-01-11T13:26:09.401Z,10.48
2024-01-11T13:28:58.309Z,10.85
2024-01-11T13:31:45.276Z,11.15
2024-01-11T13:34:32.336Z,10.90
2024-01-11T13:37:19.203Z,10.60
2024-01-11T13:40:06.639Z,11.60
2024-01-11T13:42:54.011Z,11.45
2024-01-11T13:45:40.947Z,11.60
2024-01-11T13:48:27.871Z,11.55
2024-01-11T13:51:16.435Z,10.90
2024-01-11T13:54:04.146Z,11.73
2024-01-11T13:56:55.901Z,11.95
2024-01-11T13:59:42.762Z,11.93
2024-01-11T14:02:29.655Z,12.20
2024-01-11T14:05:19.239Z,12.18
2024-01-11T14:08:08.787Z,12.38
2024-01-11T14:10:55.943Z,11.93
2024-01-11T14:13:43.529Z,13.23
2024-01-11T14:16:30.513Z,12.90
2024-01-11T14:19:17.555Z,11.80
2024-01-11T14:22:04.658Z,13.38
2024-01-11T14:24:51.556Z,13.30
2024-01-11T14:27:38.776Z,13.73
2024-01-11T14:30:28.752Z,13.50
2024-01-11T14:33:15.792Z,13.82
2024-01-11T14:36:02.948Z,12.88
2024-01-11T14:38:50.988Z,12.90
2024-01-11T14:41:38.638Z,12.90
2024-01-11T14:44:25.585Z,12.85
2024-01-11T14:47:12.683Z,13.48
2024-01-11T14:50:00.358Z,13.25
2024-01-11T14:52:48.418Z,13.18
2024-01-11T14:55:36.921Z,12.95
2024-01-11T14:58:23.819Z,13.45
2024-01-11T15:01:10.775Z,12.55
2024-01-11T15:04:02.577Z,13.60
2024-01-11T15:06:49.957Z,12.82
2024-01-11T15:09:39.121Z,13.52
2024-01-11T15:12:28.015Z,13.48
2024-01-11T15:15:15.029Z,12.80
2024-01-11T15:18:01.997Z,13.88
2024-01-11T15:20:49.056Z,12.68
2024-01-11T15:23:36.142Z,13.73
2024-01-11T15:26:23.124Z,13.57
2024-01-11T15:29:10.170Z,14.43
2024-01-11T15:31:57.151Z,14.32
2024-01-11T15:34:44.072Z,13.63
2024-01-11T15:37:33.489Z,14.13
2024-01-11T15:43:08.351Z,14.40
2024-01-11T15:45:55.337Z,13.82
2024-01-11T15:48:45.719Z,12.65
2024-01-11T15:51:32.636Z,13.65
2024-01-11T15:54:21.596Z,13.52
2024-01-11T15:57:09.119Z,13.40
2024-01-11T15:59:56.037Z,11.82
2024-01-11T16:02:43.943Z,13.77
2024-01-11T16:05:31.294Z,11.63
2024-01-11T16:08:18.248Z,12.02
2024-01-11T16:11:05.171Z,11.38
2024-01-11T16:13:54.636Z,11.10
2024-01-11T16:16:45.199Z,10.60
2024-01-11T16:19:34.423Z,10.90
2024-01-11T16:22:21.524Z,9.85
2024-01-11T16:25:08.641Z,10.50
2024-01-11T16:27:55.612Z,9.82
2024-01-11T16:30:43.112Z,10.50
2024-01-11T16:33:30.895Z,9.50
2024-01-11T16:36:17.872Z,9.65
2024-01-11T16:41:56.628Z,9.88
2024-01-11T16:44:43.701Z,10.02
2024-01-11T16:47:37.026Z,9.27
2024-01-11T16:50:25.004Z,9.82
2024-01-11T16:53:12.281Z,9.65
2024-01-11T16:56:01.927Z,9.93
2024-01-11T16:58:51.655Z,9.80
2024-01-11T17:01:41.118Z,9.73
2024-01-11T17:04:28.514Z,9.98
2024-01-11T17:07:15.413Z,10.32
2024-01-11T17:10:03.192Z,9.52
2024-01-11T17:12:50.106Z,9.73
2024-01-11T17:15:37.013Z,9.43
2024-01-11T17:18:24.314Z,9.35
2024-01-11T17:21:11.508Z,9.05
2024-01-11T17:23:58.416Z,10.05
2024-01-11T17:26:45.447Z,10.25
2024-01-11T17:29:32.350Z,9.25
2024-01-11T17:32:19.270Z,9.88
2024-01-11T17:35:07.243Z,9.75
2024-01-11T17:37:54.208Z,10.25
2024-01-11T17:40:41.396Z,10.27
2024-01-11T17:43:31.034Z,9.10
2024-01-11T17:46:27.366Z,10.75
2024-01-11T17:49:15.966Z,10.98
2024-01-11T17:52:03.004Z,10.35
2024-01-11T17:54:50.067Z,10.93
2024-01-11T17:57:37.864Z,10.88
2024-01-11T18:00:24.942Z,10.32
2024-01-11T18:03:13.066Z,10.90
2024-01-11T18:06:00.017Z,10.57
2024-01-11T18:08:47.256Z,10.73
2024-01-11T18:11:34.251Z,10.88
2024-01-11T18:14:21.193Z,10.52
2024-01-11T18:17:11.004Z,10.15
2024-01-11T18:19:57.936Z,10.70
2024-01-11T18:22:44.777Z,10.88
2024-01-11T18:25:31.713Z,9.95
2024-01-11T18:28:18.612Z,10.13
2024-01-11T18:31:05.565Z,11.18
2024-01-11T18:33:53.281Z,10.20
2024-01-11T18:36:45.058Z,10.60
2024-01-11T18:39:32.025Z,12.23
2024-01-11T18:42:20.685Z,11.45
2024-01-11T18:45:08.278Z,10.75
2024-01-11T18:47:55.325Z,10.35
2024-01-11T18:50:42.382Z,11.13
2024-01-11T18:53:29.810Z,11.18
2024-01-11T18:56:17.050Z,10.43
2024-01-11T18:59:04.626Z,11.73
2024-01-11T19:01:51.553Z,11.77
2024-01-11T19:04:38.510Z,11.23
2024-01-11T19:07:25.392Z,10.20
2024-01-11T19:10:12.393Z,10.32
2024-01-11T19:12:59.354Z,10.43
2024-01-11T19:15:49.665Z,11.13
2024-01-11T19:18:36.659Z,10.63
2024-01-11T19:21:23.697Z,11.35
2024-01-11T19:24:10.649Z,10.77
2024-01-11T19:27:00.647Z,10.40
2024-01-11T19:29:47.670Z,11.43
2024-01-11T19:32:36.271Z,11.48
2024-01-11T19:35:23.314Z,11.55
2024-01-11T19:38:10.380Z,11.48
2024-01-11T19:40:57.379Z,10.98
2024-01-11T19:43:47.296Z,12.10
2024-01-11T19:46:34.761Z,11.90
2024-01-11T19:49:22.011Z,12.10
2024-01-11T19:52:08.985Z,11.80
2024-01-11T19:54:55.949Z,11.90
2024-01-11T19:57:43.078Z,12.25
2024-01-11T20:00:29.970Z,12.10
2024-01-11T20:03:16.914Z,12.15
2024-01-11T20:06:04.193Z,11.73
2024-01-11T20:08:51.502Z,11.30
2024-01-11T20:11:40.158Z,12.40
2024-01-11T20:14:28.394Z,11.27
2024-01-11T20:17:16.575Z,11.98
2024-01-11T20:20:04.843Z,12.23
2024-01-11T20:22:51.905Z,12.10
2024-01-11T20:25:38.754Z,13.15
2024-01-11T20:28:25.704Z,11.80
2024-01-11T20:31:13.292Z,12.55
2024-01-11T20:34:04.022Z,12.68
2024-01-11T20:36:51.070Z,13.15
2024-01-11T20:39:38.884Z,13.10
2024-01-11T20:42:25.902Z,14.32
2024-01-11T20:45:12.780Z,13.20
2024-01-11T20:47:59.917Z,14.05
2024-01-11T20:50:48.209Z,13.30
2024-01-11T20:53:35.137Z,14.15
2024-01-11T20:56:22.193Z,14.50
2024-01-11T20:59:09.131Z,14.02
2024-01-11T21:01:56.359Z,14.05
2024-01-11T21:04:43.335Z,14.75
2024-01-11T21:07:30.197Z,15.05
2024-01-11T21:10:17.291Z,14.10
2024-01-11T21:13:04.197Z,14.05
2024-01-11T21:15:51.299Z,14.60
2024-01-11T21:18:38.275Z,15.10
2024-01-11T21:21:25.239Z,14.73
2024-01-11T21:24:12.484Z,14.13
2024-01-11T21:26:59.523Z,14.00
2024-01-11T21:29:47.551Z,13.75
2024-01-11T21:32:34.550Z,14.55
2024-01-11T21:35:21.537Z,13.80
2024-01-11T21:38:09.382Z,14.73
2024-01-11T21:40:56.331Z,14.13
2024-01-11T21:43:43.207Z,14.20
2024-01-11T21:46:30.206Z,14.65
2024-01-11T21:49:19.755Z,14.85
2024-01-11T21:52:07.535Z,14.65
2024-01-11T21:54:54.504Z,13.88
2024-01-11T21:57:42.907Z,14.63
2024-01-11T22:00:31.711Z,14.10
2024-01-11T22:03:18.602Z,15.43
2024-01-11T22:06:05.973Z,14.73
2024-01-11T22:08:58.336Z,14.40
2024-01-11T22:11:45.254Z,15.15
2024-01-11T22:14:33.451Z,15.10
2024-01-11T22:17:20.551Z,14.68
2024-01-11T22:20:08.266Z,14.32
2024-01-11T22:22:55.254Z,15.13
2024-01-11T22:25:42.126Z,15.30
2024-01-11T22:28:29.044Z,14.05
2024-01-11T22:31:18.273Z,14.55
2024-01-11T22:34:05.313Z,14.32
2024-01-11T22:36:52.467Z,14.00
2024-01-11T22:39:39.643Z,14.95
2024-01-11T22:42:26.571Z,14.48
2024-01-11T22:45:13.396Z,13.05
2024-01-11T22:48:00.320Z,13.98
2024-01-11T22:50:47.353Z,14.45
2024-01-11T22:53:34.409Z,13.68
2024-01-11T22:56:21.333Z,14.80
2024-01-11T22:59:10.736Z,12.88
2024-01-11T23:01:57.671Z,13.75
2024-01-11T23:04:44.686Z,13.70
2024-01-11T23:07:31.555Z,14.57
2024-01-11T23:10:18.642Z,13.82
2024-01-11T23:13:05.928Z,13.75
2024-01-11T23:15:52.803Z,14.52
2024-01-11T23:18:43.925Z,13.82
2024-01-11T23:21:30.955Z,13.55
2024-01-11T23:24:17.905Z,14.30
2024-01-11T23:27:06.931Z,14.02
2024-01-11T23:29:53.949Z,14.40
2024-01-11T23:32:40.983Z,13.05
2024-01-11T23:35:28.231Z,15.07
2024-01-11T23:38:17.604Z,14.10
2024-01-11T23:43:51.511Z,13.77
2024-01-11T23:46:38.410Z,14.70
2024-01-11T23:49:25.366Z,14.70
2024-01-11T23:52:12.269Z,14.35
2024-01-11T23:54:59.209Z,13.68
2024-01-11T23:57:46.095Z,13.57
